createdAt,value
2018-09-10T00:00:34.736Z,18.60
2018-09-10T00:05:39.067Z,18.50
2018-09-10T00:10:43.192Z,18.50
2018-09-10T00:15:46.999Z,18.40
2018-09-10T00:20:51.533Z,18.40
2018-09-10T00:25:55.663Z,18.40
2018-09-10T00:30:59.964Z,18.40
2018-09-10T00:36:04.557Z,18.20
2018-09-10T00:41:09.255Z,18.10
2018-09-10T00:46:17.073Z,18.10
2018-09-10T00:51:21.047Z,18.00
2018-09-10T00:56:24.868Z,17.90
2018-09-10T01:01:29.201Z,17.90
2018-09-10T01:06:33.438Z,17.70
2018-09-10T01:11:37.431Z,17.70
2018-09-10T01:16:41.495Z,17.60
2018-09-10T01:21:45.141Z,17.60
2018-09-10T01:26:49.482Z,17.50
2018-09-10T01:31:53.755Z,17.50
2018-09-10T01:36:57.781Z,17.50
2018-09-10T01:42:01.735Z,17.50
2018-09-10T01:47:05.755Z,17.40
2018-09-10T01:52:09.845Z,17.40
2018-09-10T01:57:14.280Z,17.30
2018-09-10T02:02:18.012Z,17.20
2018-09-10T02:07:21.710Z,17.10
2018-09-10T02:12:26.333Z,17.10
2018-09-10T02:17:30.186Z,17.00
2018-09-10T02:22:34.246Z,17.00
2018-09-10T02:27:38.056Z,17.00
2018-09-10T02:32:46.662Z,17.00
2018-09-10T02:37:50.359Z,16.90
2018-09-10T02:42:54.378Z,16.90
2018-09-10T02:47:58.646Z,16.80
2018-09-10T02:53:02.380Z,16.70
2018-09-10T02:58:06.115Z,16.70
2018-09-10T03:03:10.913Z,16.60
2018-09-10T03:08:17.710Z,16.50
2018-09-10T03:13:22.304Z,16.50
2018-09-10T03:18:26.063Z,16.40
2018-09-10T03:23:29.739Z,16.40
2018-09-10T03:28:33.601Z,16.40
2018-09-10T03:33:37.699Z,16.30
2018-09-10T03:38:41.247Z,16.30
2018-09-10T03:43:44.808Z,16.20
2018-09-10T03:48:48.566Z,16.10
2018-09-10T03:53:52.323Z,16.10
2018-09-10T03:58:56.744Z,16.10
2018-09-10T04:04:00.579Z,16.00
2018-09-10T04:09:06.257Z,15.90
2018-09-10T04:14:09.957Z,16.00
2018-09-10T04:19:13.849Z,16.20
2018-09-10T04:24:18.333Z,16.10
2018-09-10T04:29:22.044Z,16.30
2018-09-10T04:34:30.025Z,16.40
2018-09-10T04:39:34.835Z,16.30
2018-09-10T04:44:38.707Z,16.40
2018-09-10T04:49:42.827Z,16.30
2018-09-10T04:54:47.384Z,16.30
2018-09-10T04:59:51.019Z,16.10
2018-09-10T05:04:54.647Z,16.10
2018-09-10T05:09:58.348Z,16.10
2018-09-10T05:15:01.916Z,16.20
2018-09-10T05:20:10.224Z,16.20
2018-09-10T05:25:15.734Z,16.10
2018-09-10T05:30:19.732Z,16.10
2018-09-10T05:35:23.497Z,16.10
2018-09-10T05:40:28.103Z,16.10
2018-09-10T05:45:32.844Z,16.10
2018-09-10T05:50:36.556Z,16.30
2018-09-10T05:55:40.312Z,16.40
2018-09-10T06:00:44.125Z,16.50
2018-09-10T06:05:47.756Z,16.70
2018-09-10T06:10:52.100Z,16.80
2018-09-10T06:15:56.124Z,16.90
2018-09-10T06:21:00.151Z,17.00
2018-09-10T06:26:06.025Z,17.10
2018-09-10T06:31:09.740Z,17.10
2018-09-10T06:36:13.408Z,17.30
2018-09-10T06:41:17.199Z,17.60
2018-09-10T06:46:21.298Z,17.80
2018-09-10T06:51:24.971Z,17.90
2018-09-10T06:56:28.687Z,18.10
2018-09-10T07:01:32.409Z,18.30
2018-09-10T07:06:36.158Z,18.40
2018-09-10T07:11:40.662Z,18.60
2018-09-10T07:16:44.271Z,18.70
2018-09-10T07:21:47.871Z,18.90
2018-09-10T07:26:51.567Z,19.00
2018-09-10T07:31:55.269Z,18.90
2018-09-10T07:36:59.070Z,19.10
2018-09-10T07:42:02.724Z,19.20
2018-09-10T07:47:06.613Z,19.30
2018-09-10T07:52:10.316Z,19.50
2018-09-10T07:57:13.953Z,19.70
2018-09-10T08:02:17.715Z,20.00
2018-09-10T08:07:21.367Z,20.40
2018-09-10T08:12:25.203Z,20.60
2018-09-10T08:17:28.894Z,20.90
2018-09-10T08:22:32.613Z,21.50
2018-09-10T08:27:39.634Z,22.30
2018-09-10T08:32:43.764Z,25.60
2018-09-10T08:37:47.998Z,30.40
2018-09-10T08:42:51.929Z,32.70
2018-09-10T08:47:55.614Z,33.40
2018-09-10T08:52:59.266Z,33.10
2018-09-10T08:58:02.892Z,34.20
2018-09-10T09:03:06.872Z,34.00
2018-09-10T09:08:10.655Z,32.90
2018-09-10T09:13:14.393Z,31.50
2018-09-10T09:18:18.753Z,29.60
2018-09-10T09:23:22.678Z,27.80
2018-09-10T09:28:26.439Z,27.30
2018-09-10T09:33:30.309Z,26.50
2018-09-10T09:38:39.660Z,26.50
2018-09-10T09:43:48.700Z,26.10
2018-09-10T09:48:52.491Z,25.90
2018-09-10T09:53:56.166Z,25.70
2018-09-10T09:58:59.786Z,25.80
2018-09-10T10:04:11.112Z,25.70
2018-09-10T10:09:14.829Z,25.70
2018-09-10T10:14:18.537Z,25.90
2018-09-10T10:19:22.172Z,26.40
2018-09-10T10:24:26.084Z,26.50
2018-09-10T10:29:30.007Z,26.50
2018-09-10T10:39:37.095Z,27.30
2018-09-10T10:44:41.015Z,27.30
2018-09-10T10:49:44.678Z,28.00
2018-09-10T10:54:48.857Z,28.60
2018-09-10T10:59:52.860Z,28.80
2018-09-10T11:04:57.476Z,28.90
2018-09-10T11:10:01.139Z,28.90
2018-09-10T11:15:05.059Z,29.10
2018-09-10T11:25:13.248Z,29.30
2018-09-10T11:30:17.075Z,29.40
2018-09-10T11:35:20.806Z,29.50
2018-09-10T11:40:24.620Z,29.50
2018-09-10T11:45:28.526Z,29.80
2018-09-10T11:50:32.709Z,29.90
2018-09-10T12:00:40.552Z,29.80
2018-09-10T12:05:44.264Z,30.20
2018-09-10T12:10:48.036Z,30.40
2018-09-10T12:15:52.211Z,30.40
2018-09-10T12:20:55.882Z,30.50
2018-09-10T12:25:59.997Z,30.50
2018-09-10T12:31:03.818Z,30.70
2018-09-10T12:36:07.834Z,30.80
2018-09-10T12:41:12.027Z,31.00
2018-09-10T12:46:15.899Z,30.70
2018-09-10T12:51:19.660Z,30.60
2018-09-10T12:56:23.347Z,30.20
2018-09-10T13:01:27.196Z,30.20
2018-09-10T13:06:31.290Z,30.60
2018-09-10T13:11:35.284Z,31.00
2018-09-10T13:16:39.492Z,31.30
2018-09-10T13:21:43.850Z,31.10
2018-09-10T13:26:48.490Z,31.30
2018-09-10T13:31:52.313Z,31.30
2018-09-10T13:36:56.982Z,31.40
2018-09-10T13:42:01.290Z,31.50
2018-09-10T13:47:06.185Z,31.50
2018-09-10T13:52:09.980Z,31.70
2018-09-10T13:57:14.209Z,31.60
2018-09-10T14:02:18.371Z,31.10
2018-09-10T14:17:42.150Z,30.80
2018-09-10T14:22:46.150Z,31.00
2018-09-10T14:27:49.869Z,31.20
2018-09-10T14:32:53.908Z,31.10
2018-09-10T14:37:58.161Z,31.00
2018-09-10T14:43:02.536Z,31.20
2018-09-10T14:48:06.740Z,30.90
2018-09-10T14:53:10.636Z,31.00
2018-09-10T14:58:15.631Z,31.20
2018-09-10T15:03:20.803Z,31.30
2018-09-10T15:08:26.864Z,31.30
2018-09-10T15:13:30.608Z,31.30
2018-09-10T15:18:34.964Z,31.30
2018-09-10T15:28:42.688Z,31.20
2018-09-10T15:33:46.497Z,30.70
2018-09-10T15:38:50.539Z,30.70
2018-09-10T15:43:58.112Z,30.80
2018-09-10T15:49:03.435Z,30.70
2018-09-10T15:54:07.701Z,30.80
2018-09-10T15:59:11.779Z,30.80
2018-09-10T16:04:16.213Z,30.70
2018-09-10T16:09:20.452Z,30.60
2018-09-10T16:14:24.408Z,30.50
2018-09-10T16:19:32.313Z,30.10
2018-09-10T16:24:36.241Z,30.20
2018-09-10T16:29:41.249Z,30.20
2018-09-10T16:34:45.738Z,30.30
2018-09-10T16:39:49.706Z,30.40
2018-09-10T16:44:53.906Z,30.50
2018-09-10T16:49:57.692Z,30.30
2018-09-10T16:55:01.673Z,30.00
2018-09-10T17:00:05.729Z,29.70
2018-09-10T17:05:09.733Z,29.40
2018-09-10T17:10:13.838Z,29.00
2018-09-10T17:15:17.618Z,28.60
2018-09-10T17:20:21.594Z,28.20
2018-09-10T17:25:36.263Z,28.00
2018-09-10T17:30:40.025Z,27.60
2018-09-10T17:35:44.388Z,27.40
2018-09-10T17:40:48.839Z,27.10
2018-09-10T17:45:53.045Z,26.80
2018-09-10T17:50:57.393Z,26.60
2018-09-10T17:56:01.695Z,26.40
2018-09-10T18:01:07.027Z,26.20
2018-09-10T18:06:11.202Z,26.00
2018-09-10T18:11:33.608Z,25.70
2018-09-10T18:16:38.851Z,25.40
2018-09-10T18:21:42.975Z,25.20
2018-09-10T18:26:49.222Z,25.10
2018-09-10T18:31:53.196Z,25.00
2018-09-10T18:36:57.435Z,25.00
2018-09-10T18:42:01.548Z,24.90
2018-09-10T18:47:05.581Z,24.70
2018-09-10T18:52:09.452Z,24.40
2018-09-10T18:57:13.972Z,24.10
2018-09-10T19:02:18.274Z,24.00
2018-09-10T19:07:22.437Z,23.80
2018-09-10T19:12:26.248Z,23.50
2018-09-10T19:18:10.964Z,23.30
2018-09-10T19:23:16.379Z,23.10
2018-09-10T19:28:20.245Z,22.90
2018-09-10T19:33:24.287Z,22.70
2018-09-10T19:38:28.090Z,22.60
2018-09-10T19:43:32.046Z,22.50
2018-09-10T19:48:36.702Z,22.40
2018-09-10T19:53:40.840Z,22.40
2018-09-10T19:58:44.993Z,22.30
2018-09-10T20:03:48.889Z,22.20
2018-09-10T20:08:53.971Z,22.10
2018-09-10T20:13:57.909Z,22.00
2018-09-10T20:19:02.123Z,21.90
2018-09-10T20:24:06.036Z,21.90
2018-09-10T20:29:09.891Z,21.80
2018-09-10T20:34:13.594Z,21.60
2018-09-10T20:39:17.322Z,21.50
2018-09-10T20:44:24.030Z,21.40
2018-09-10T20:49:28.459Z,21.40
2018-09-10T20:54:32.120Z,21.50
2018-09-10T20:59:36.293Z,21.30
2018-09-10T21:04:40.080Z,21.30
2018-09-10T21:09:44.556Z,21.10
2018-09-10T21:14:48.835Z,21.00
2018-09-10T21:19:52.651Z,20.90
2018-09-10T21:24:56.344Z,20.80
2018-09-10T21:30:00.721Z,20.80
2018-09-10T21:35:04.392Z,20.80
2018-09-10T21:40:08.065Z,20.70
2018-09-10T21:45:11.685Z,20.60
2018-09-10T21:50:15.836Z,20.50
2018-09-10T21:55:21.877Z,20.40
2018-09-10T22:00:26.981Z,20.30
2018-09-10T22:05:30.895Z,20.30
2018-09-10T22:10:35.082Z,20.20
2018-09-10T22:15:38.951Z,20.00
2018-09-10T22:20:43.057Z,20.00
2018-09-10T22:25:46.787Z,19.90
2018-09-10T22:30:50.842Z,19.80
2018-09-10T22:35:54.684Z,19.80
2018-09-10T22:40:58.373Z,19.70
2018-09-10T22:46:01.986Z,19.60
2018-09-10T22:51:06.285Z,19.60
2018-09-10T22:56:10.155Z,19.50
2018-09-10T23:01:14.015Z,19.50
2018-09-10T23:06:18.204Z,19.40
2018-09-10T23:11:21.916Z,19.30
2018-09-10T23:16:29.241Z,19.20
2018-09-10T23:21:33.232Z,19.10
2018-09-10T23:26:37.041Z,19.10
2018-09-10T23:31:40.767Z,19.00
2018-09-10T23:36:44.534Z,19.00
2018-09-10T23:41:48.830Z,19.00
2018-09-10T23:46:52.870Z,18.80
2018-09-10T23:51:56.988Z,18.80
2018-09-10T23:57:01.196Z,18.70
